VOE3575 LPPR-LEBB
Flight info
| Callsign | VOE3575 |
|---|---|
| Flight time | 0h 54m |
| Altitude | 34000 |
| Route | BELDU DCT ADORO DCT FITSE DCT DGO |
| Aircraft | A320/M-SDE3FGHIRWY/LB1 |
Departure
| Time | 2026-05-01 11:35 |
|---|---|
| Airport | Francisco de Sá Carneiro Airport (LPPR) |
Arrival
| Time | 2026-05-01 12:29 |
|---|---|
| Airport | Bilbao Airport (LEBB) |
| Time | Latitude | Longitude | Altitude | Speed | Heading |
|---|---|---|---|---|---|
| 2026-05-01 11:07 | 41.23687 | -8.67248 | 245 ft | 0 kts | 78° |
| 2026-05-01 11:27 | 41.23683 | -8.67275 | 245 ft | 4 kts | 83° |
| 2026-05-01 11:27 | 41.23682 | -8.67310 | 244 ft | 4 kts | 96° |
| 2026-05-01 11:28 | 41.23688 | -8.67343 | 242 ft | 4 kts | 133° |
| 2026-05-01 11:28 | 41.23698 | -8.67353 | 242 ft | 0 kts | 162° |
| 2026-05-01 11:31 | 41.23683 | -8.67347 | 242 ft | 6 kts | 163° |
| 2026-05-01 11:31 | 41.23617 | -8.67330 | 242 ft | 13 kts | 175° |
| 2026-05-01 11:31 | 41.23528 | -8.67382 | 240 ft | 13 kts | 202° |
| 2026-05-01 11:32 | 41.23448 | -8.67375 | 240 ft | 11 kts | 165° |
| 2026-05-01 11:32 | 41.23381 | -8.67364 | 239 ft | 10 kts | 187° |
| 2026-05-01 11:32 | 41.23334 | -8.67432 | 239 ft | 11 kts | 249° |
| 2026-05-01 11:32 | 41.23318 | -8.67537 | 235 ft | 12 kts | 256° |
| 2026-05-01 11:33 | 41.23308 | -8.67595 | 237 ft | 0 kts | 258° |
| 2026-05-01 11:33 | 41.23305 | -8.67617 | 237 ft | 11 kts | 258° |
| 2026-05-01 11:34 | 41.23319 | -8.67733 | 238 ft | 15 kts | 330° |
| 2026-05-01 11:34 | 41.23590 | -8.67807 | 233 ft | 75 kts | 348° |
| 2026-05-01 11:34 | 41.24320 | -8.67998 | 212 ft | 136 kts | 348° |
| 2026-05-01 11:34 | 41.25410 | -8.68279 | 301 ft | 175 kts | 349° |
| 2026-05-01 11:35 | 41.26642 | -8.68590 | 861 ft | 187 kts | 349° |
| 2026-05-01 11:35 | 41.27958 | -8.68966 | 1469 ft | 197 kts | 348° |
| 2026-05-01 11:35 | 41.29308 | -8.69343 | 2206 ft | 200 kts | 347° |
| 2026-05-01 11:35 | 41.30743 | -8.69719 | 2579 ft | 221 kts | 348° |
| 2026-05-01 11:36 | 41.32334 | -8.70128 | 2939 ft | 246 kts | 348° |
| 2026-05-01 11:36 | 41.34110 | -8.70309 | 3480 ft | 265 kts | 9° |
| 2026-05-01 11:36 | 41.35826 | -8.69379 | 4323 ft | 272 kts | 39° |
| 2026-05-01 11:36 | 41.37003 | -8.67438 | 5260 ft | 272 kts | 69° |
| 2026-05-01 11:37 | 41.37377 | -8.64994 | 6160 ft | 272 kts | 88° |
| 2026-05-01 11:37 | 41.37510 | -8.62503 | 7050 ft | 275 kts | 88° |
| 2026-05-01 11:37 | 41.37639 | -8.59947 | 7859 ft | 280 kts | 88° |
| 2026-05-01 11:37 | 41.37772 | -8.57332 | 8673 ft | 286 kts | 88° |
| 2026-05-01 11:38 | 41.37912 | -8.54665 | 9474 ft | 292 kts | 88° |
| 2026-05-01 11:38 | 41.38058 | -8.51938 | 10252 ft | 298 kts | 88° |
| 2026-05-01 11:38 | 41.38211 | -8.49101 | 10609 ft | 320 kts | 88° |
| 2026-05-01 11:38 | 41.38374 | -8.46035 | 10859 ft | 343 kts | 88° |
| 2026-05-01 11:39 | 41.38549 | -8.42804 | 11357 ft | 355 kts | 88° |
| 2026-05-01 11:39 | 41.38734 | -8.39490 | 12053 ft | 361 kts | 88° |
| 2026-05-01 11:39 | 41.38922 | -8.36143 | 12777 ft | 365 kts | 88° |
| 2026-05-01 11:39 | 41.39110 | -8.32745 | 13478 ft | 370 kts | 89° |
| 2026-05-01 11:40 | 41.39299 | -8.29310 | 14142 ft | 374 kts | 89° |
| 2026-05-01 11:40 | 41.39490 | -8.25834 | 14777 ft | 378 kts | 89° |
| 2026-05-01 11:40 | 41.39680 | -8.22313 | 15410 ft | 383 kts | 89° |
| 2026-05-01 11:40 | 41.39868 | -8.18760 | 16030 ft | 387 kts | 89° |
| 2026-05-01 11:41 | 41.40054 | -8.15173 | 16647 ft | 391 kts | 89° |
| 2026-05-01 11:41 | 41.40241 | -8.11542 | 17236 ft | 395 kts | 89° |
| 2026-05-01 11:41 | 41.40429 | -8.07861 | 17822 ft | 400 kts | 89° |
| 2026-05-01 11:41 | 41.40617 | -8.04139 | 18417 ft | 404 kts | 89° |
| 2026-05-01 11:42 | 41.40810 | -8.00393 | 18934 ft | 408 kts | 89° |
| 2026-05-01 11:42 | 41.41005 | -7.96614 | 19427 ft | 411 kts | 89° |
| 2026-05-01 11:42 | 41.41196 | -7.92847 | 19918 ft | 415 kts | 89° |
| 2026-05-01 11:42 | 41.41387 | -7.89004 | 20418 ft | 418 kts | 89° |
| 2026-05-01 11:43 | 41.41577 | -7.85125 | 20926 ft | 421 kts | 89° |
| 2026-05-01 11:43 | 41.41768 | -7.81213 | 21416 ft | 425 kts | 89° |
| 2026-05-01 11:43 | 41.41960 | -7.77258 | 21895 ft | 428 kts | 89° |
| 2026-05-01 11:44 | 41.42350 | -7.69291 | 22833 ft | 434 kts | 89° |
| 2026-05-01 11:44 | 41.42546 | -7.65250 | 23294 ft | 438 kts | 89° |
| 2026-05-01 11:44 | 41.42741 | -7.61196 | 23735 ft | 441 kts | 89° |
| 2026-05-01 11:44 | 41.42935 | -7.57108 | 24110 ft | 443 kts | 89° |
| 2026-05-01 11:45 | 41.43126 | -7.52992 | 24510 ft | 446 kts | 89° |
| 2026-05-01 11:45 | 41.43316 | -7.48858 | 24890 ft | 448 kts | 89° |
| 2026-05-01 11:45 | 41.43507 | -7.44708 | 25257 ft | 450 kts | 89° |
| 2026-05-01 11:45 | 41.43702 | -7.40528 | 25614 ft | 453 kts | 89° |
| 2026-05-01 11:46 | 41.43898 | -7.36326 | 25985 ft | 456 kts | 89° |
| 2026-05-01 11:46 | 41.44093 | -7.32098 | 26350 ft | 458 kts | 89° |
| 2026-05-01 11:46 | 41.44285 | -7.27851 | 26715 ft | 460 kts | 89° |
| 2026-05-01 11:46 | 41.44472 | -7.23633 | 27059 ft | 463 kts | 89° |
| 2026-05-01 11:47 | 41.44660 | -7.19339 | 27400 ft | 465 kts | 89° |
| 2026-05-01 11:47 | 41.44846 | -7.15027 | 27763 ft | 467 kts | 89° |
| 2026-05-01 11:47 | 41.45032 | -7.10702 | 28118 ft | 470 kts | 89° |
| 2026-05-01 11:47 | 41.45220 | -7.06335 | 28453 ft | 472 kts | 89° |
| 2026-05-01 11:48 | 41.45406 | -7.01967 | 28764 ft | 474 kts | 89° |
| 2026-05-01 11:48 | 41.45594 | -6.97555 | 29069 ft | 477 kts | 89° |
| 2026-05-01 11:48 | 41.45781 | -6.93131 | 29366 ft | 479 kts | 89° |
| 2026-05-01 11:48 | 41.45967 | -6.88694 | 29659 ft | 482 kts | 89° |
| 2026-05-01 11:49 | 41.46150 | -6.84212 | 29944 ft | 484 kts | 89° |
| 2026-05-01 11:49 | 41.46330 | -6.79729 | 30212 ft | 486 kts | 89° |
| 2026-05-01 11:49 | 41.46511 | -6.75207 | 30462 ft | 488 kts | 89° |
| 2026-05-01 11:49 | 41.46693 | -6.70679 | 30777 ft | 488 kts | 89° |
| 2026-05-01 11:50 | 41.46876 | -6.66160 | 31146 ft | 487 kts | 89° |
| 2026-05-01 11:50 | 41.47056 | -6.61656 | 31505 ft | 486 kts | 89° |
| 2026-05-01 11:50 | 41.47230 | -6.57155 | 31860 ft | 486 kts | 89° |
| 2026-05-01 11:50 | 41.47399 | -6.52659 | 32210 ft | 485 kts | 89° |
| 2026-05-01 11:51 | 41.47565 | -6.48173 | 32559 ft | 484 kts | 89° |
| 2026-05-01 11:51 | 41.47732 | -6.43682 | 32928 ft | 483 kts | 89° |
| 2026-05-01 11:51 | 41.47893 | -6.39295 | 33374 ft | 479 kts | 89° |
| 2026-05-01 11:51 | 41.48054 | -6.34876 | 33781 ft | 477 kts | 90° |
| 2026-05-01 11:52 | 41.48281 | -6.30459 | 34092 ft | 478 kts | 84° |
| 2026-05-01 11:52 | 41.48954 | -6.26123 | 34156 ft | 478 kts | 75° |
| 2026-05-01 11:52 | 41.51396 | -6.17868 | 34160 ft | 478 kts | 69° |
| 2026-05-01 11:53 | 41.53918 | -6.09645 | 34160 ft | 478 kts | 69° |
| 2026-05-01 11:53 | 41.56388 | -6.01425 | 34160 ft | 476 kts | 69° |
| 2026-05-01 11:54 | 41.58843 | -5.93211 | 34162 ft | 476 kts | 70° |
| 2026-05-01 11:54 | 41.61295 | -5.85006 | 34159 ft | 475 kts | 69° |
| 2026-05-01 11:55 | 41.63755 | -5.76804 | 34161 ft | 475 kts | 70° |
| 2026-05-01 11:55 | 41.66203 | -5.68603 | 34149 ft | 474 kts | 70° |
| 2026-05-01 11:56 | 41.68635 | -5.60413 | 34156 ft | 474 kts | 70° |
| 2026-05-01 11:56 | 41.71070 | -5.52226 | 34156 ft | 473 kts | 70° |
| 2026-05-01 11:57 | 41.73086 | -5.45421 | 34156 ft | 473 kts | 70° |
| 2026-05-01 11:57 | 41.75906 | -5.35834 | 34155 ft | 473 kts | 70° |
| 2026-05-01 11:58 | 41.78299 | -5.27685 | 34160 ft | 473 kts | 70° |
| 2026-05-01 11:59 | 41.81901 | -5.15373 | 34189 ft | 473 kts | 70° |
| 2026-05-01 11:59 | 41.84289 | -5.07157 | 34189 ft | 473 kts | 70° |
| 2026-05-01 12:00 | 41.87871 | -4.94838 | 34172 ft | 473 kts | 69° |
| 2026-05-01 12:01 | 41.91465 | -4.82515 | 34203 ft | 472 kts | 70° |
| 2026-05-01 12:01 | 41.93820 | -4.74292 | 34198 ft | 471 kts | 70° |
| 2026-05-01 12:02 | 41.96166 | -4.66079 | 34184 ft | 470 kts | 70° |
| 2026-05-01 12:02 | 41.98121 | -4.59255 | 34180 ft | 470 kts | 70° |
| 2026-05-01 12:03 | 42.00847 | -4.49713 | 34179 ft | 469 kts | 70° |
| 2026-05-01 12:03 | 42.03168 | -4.41521 | 34175 ft | 469 kts | 70° |
| 2026-05-01 12:04 | 42.05477 | -4.33326 | 34171 ft | 468 kts | 70° |
| 2026-05-01 12:04 | 42.07394 | -4.26523 | 34165 ft | 468 kts | 70° |
| 2026-05-01 12:05 | 42.09701 | -4.18319 | 34164 ft | 468 kts | 70° |
| 2026-05-01 12:05 | 42.13156 | -4.06018 | 34163 ft | 468 kts | 70° |
| 2026-05-01 12:06 | 42.15440 | -3.97824 | 34162 ft | 467 kts | 70° |
| 2026-05-01 12:06 | 42.17721 | -3.89622 | 34146 ft | 467 kts | 70° |
| 2026-05-01 12:07 | 42.19992 | -3.81420 | 34129 ft | 467 kts | 70° |
| 2026-05-01 12:07 | 42.22248 | -3.73218 | 34186 ft | 466 kts | 70° |
| 2026-05-01 12:08 | 42.24507 | -3.65021 | 34196 ft | 465 kts | 70° |
| 2026-05-01 12:08 | 42.26748 | -3.56888 | 34189 ft | 465 kts | 70° |
| 2026-05-01 12:09 | 42.28994 | -3.48682 | 34179 ft | 465 kts | 70° |
| 2026-05-01 12:09 | 42.31229 | -3.40463 | 33004 ft | 472 kts | 69° |
| 2026-05-01 12:10 | 42.32374 | -3.36251 | 31744 ft | 482 kts | 69° |
| 2026-05-01 12:10 | 42.34702 | -3.27658 | 29801 ft | 487 kts | 69° |
| 2026-05-01 12:10 | 42.35862 | -3.23373 | 28877 ft | 485 kts | 69° |
| 2026-05-01 12:11 | 42.38143 | -3.14929 | 27383 ft | 476 kts | 70° |
| 2026-05-01 12:11 | 42.39267 | -3.10755 | 26747 ft | 469 kts | 70° |
| 2026-05-01 12:11 | 42.40378 | -3.06621 | 26039 ft | 465 kts | 70° |
| 2026-05-01 12:12 | 42.41473 | -3.02533 | 25380 ft | 460 kts | 71° |
| 2026-05-01 12:12 | 42.42563 | -2.98496 | 24738 ft | 455 kts | 69° |
| 2026-05-01 12:12 | 42.44055 | -2.94747 | 24107 ft | 451 kts | 54° |
| 2026-05-01 12:12 | 42.46163 | -2.91639 | 23456 ft | 447 kts | 39° |
| 2026-05-01 12:13 | 42.48740 | -2.89353 | 22871 ft | 439 kts | 25° |
| 2026-05-01 12:13 | 42.51592 | -2.87987 | 22342 ft | 431 kts | 11° |
| 2026-05-01 12:13 | 42.54535 | -2.87548 | 21827 ft | 423 kts | 0° |
| 2026-05-01 12:13 | 42.57454 | -2.87399 | 21325 ft | 417 kts | 0° |
| 2026-05-01 12:14 | 42.60328 | -2.87254 | 20829 ft | 412 kts | 0° |
| 2026-05-01 12:14 | 42.63180 | -2.87105 | 20339 ft | 407 kts | 0° |
| 2026-05-01 12:14 | 42.65980 | -2.86953 | 20029 ft | 401 kts | 1° |
| 2026-05-01 12:14 | 42.68792 | -2.86800 | 19303 ft | 405 kts | 0° |
| 2026-05-01 12:15 | 42.71591 | -2.86944 | 18789 ft | 400 kts | 350° |
| 2026-05-01 12:15 | 42.74287 | -2.87791 | 18239 ft | 395 kts | 339° |
| 2026-05-01 12:15 | 42.76768 | -2.89294 | 17723 ft | 388 kts | 328° |
| 2026-05-01 12:15 | 42.79099 | -2.91105 | 17214 ft | 384 kts | 328° |
| 2026-05-01 12:16 | 42.81413 | -2.92898 | 16717 ft | 382 kts | 328° |
| 2026-05-01 12:16 | 42.83716 | -2.94681 | 16214 ft | 379 kts | 328° |
| 2026-05-01 12:16 | 42.85999 | -2.96450 | 15718 ft | 377 kts | 328° |
| 2026-05-01 12:16 | 42.88273 | -2.98215 | 15227 ft | 375 kts | 328° |
| 2026-05-01 12:17 | 42.90538 | -2.99970 | 14738 ft | 373 kts | 328° |
| 2026-05-01 12:17 | 42.92792 | -3.01717 | 14250 ft | 371 kts | 328° |
| 2026-05-01 12:17 | 42.95004 | -3.03435 | 13736 ft | 370 kts | 328° |
| 2026-05-01 12:17 | 42.97228 | -3.05163 | 13219 ft | 367 kts | 328° |
| 2026-05-01 12:18 | 42.99464 | -3.06904 | 12709 ft | 364 kts | 328° |
| 2026-05-01 12:18 | 43.01628 | -3.08590 | 12214 ft | 361 kts | 328° |
| 2026-05-01 12:18 | 43.03792 | -3.10277 | 11718 ft | 356 kts | 328° |
| 2026-05-01 12:18 | 43.05942 | -3.11952 | 11199 ft | 355 kts | 328° |
| 2026-05-01 12:19 | 43.08083 | -3.13621 | 10709 ft | 353 kts | 328° |
| 2026-05-01 12:19 | 43.10179 | -3.15256 | 10559 ft | 339 kts | 328° |
| 2026-05-01 12:19 | 43.12193 | -3.16829 | 10438 ft | 327 kts | 328° |
| 2026-05-01 12:19 | 43.14134 | -3.18352 | 10316 ft | 316 kts | 328° |
| 2026-05-01 12:20 | 43.16008 | -3.19820 | 10153 ft | 307 kts | 328° |
| 2026-05-01 12:20 | 43.17846 | -3.21258 | 9912 ft | 304 kts | 328° |
| 2026-05-01 12:20 | 43.19698 | -3.22714 | 9462 ft | 305 kts | 328° |
| 2026-05-01 12:20 | 43.21524 | -3.24150 | 9118 ft | 301 kts | 328° |
| 2026-05-01 12:21 | 43.23339 | -3.25575 | 8739 ft | 300 kts | 328° |
| 2026-05-01 12:21 | 43.25168 | -3.26919 | 8374 ft | 298 kts | 336° |
| 2026-05-01 12:21 | 43.27171 | -3.27620 | 7976 ft | 298 kts | 352° |
| 2026-05-01 12:21 | 43.29240 | -3.27859 | 7576 ft | 298 kts | 357° |
| 2026-05-01 12:22 | 43.31273 | -3.27888 | 7187 ft | 295 kts | 1° |
| 2026-05-01 12:22 | 43.33324 | -3.27697 | 6628 ft | 299 kts | 6° |
| 2026-05-01 12:22 | 43.35397 | -3.27272 | 5807 ft | 301 kts | 12° |
| 2026-05-01 12:22 | 43.37425 | -3.26621 | 5093 ft | 297 kts | 17° |
| 2026-05-01 12:23 | 43.39327 | -3.25746 | 4802 ft | 278 kts | 27° |
| 2026-05-01 12:23 | 43.40704 | -3.24072 | 4786 ft | 253 kts | 65° |
| 2026-05-01 12:23 | 43.41046 | -3.21872 | 4751 ft | 228 kts | 102° |
| 2026-05-01 12:23 | 43.40593 | -3.19843 | 4533 ft | 220 kts | 118° |
| 2026-05-01 12:24 | 43.39925 | -3.17960 | 4242 ft | 218 kts | 120° |
| 2026-05-01 12:24 | 43.39241 | -3.16101 | 3952 ft | 218 kts | 119° |
| 2026-05-01 12:24 | 43.38562 | -3.14239 | 3659 ft | 218 kts | 119° |
| 2026-05-01 12:24 | 43.37882 | -3.12369 | 3365 ft | 218 kts | 118° |
| 2026-05-01 12:25 | 43.37217 | -3.10536 | 3073 ft | 209 kts | 119° |
| 2026-05-01 12:25 | 43.35983 | -3.07143 | 2546 ft | 185 kts | 118° |
| 2026-05-01 12:25 | 43.35427 | -3.05618 | 2309 ft | 172 kts | 117° |
| 2026-05-01 12:26 | 43.34908 | -3.04195 | 2058 ft | 161 kts | 117° |
| 2026-05-01 12:26 | 43.33975 | -3.01636 | 1650 ft | 143 kts | 117° |
| 2026-05-01 12:26 | 43.33533 | -3.00425 | 1456 ft | 142 kts | 116° |
| 2026-05-01 12:27 | 43.33090 | -2.99212 | 1261 ft | 142 kts | 114° |
| 2026-05-01 12:27 | 43.32209 | -2.96782 | 823 ft | 142 kts | 112° |
| 2026-05-01 12:28 | 43.31314 | -2.94364 | 479 ft | 141 kts | 116° |
| 2026-05-01 12:28 | 43.30881 | -2.93165 | 297 ft | 140 kts | 116° |
| 2026-05-01 12:28 | 43.30087 | -2.91000 | 123 ft | 91 kts | 117° |
| 2026-05-01 12:29 | 43.29880 | -2.90434 | 124 ft | 44 kts | 116° |
| 2026-05-01 12:29 | 43.29753 | -2.90086 | 125 ft | 39 kts | 116° |
| 2026-05-01 12:29 | 43.29683 | -2.89637 | 126 ft | 14 kts | 52° |
| 2026-05-01 12:30 | 43.29797 | -2.89701 | 126 ft | 11 kts | 296° |
| 2026-05-01 12:30 | 43.29831 | -2.89791 | 127 ft | 10 kts | 297° |
| 2026-05-01 12:30 | 43.29860 | -2.89870 | 125 ft | 9 kts | 297° |
| 2026-05-01 12:31 | 43.29886 | -2.89939 | 126 ft | 8 kts | 297° |
| 2026-05-01 12:31 | 43.29911 | -2.90008 | 125 ft | 12 kts | 296° |
| 2026-05-01 12:31 | 43.29965 | -2.90157 | 126 ft | 20 kts | 296° |
| 2026-05-01 12:31 | 43.30034 | -2.90343 | 128 ft | 20 kts | 296° |
| 2026-05-01 12:32 | 43.30098 | -2.90523 | 126 ft | 19 kts | 296° |
| 2026-05-01 12:32 | 43.30266 | -2.90546 | 123 ft | 12 kts | 330° |
| 2026-05-01 12:32 | 43.30331 | -2.90605 | 125 ft | 10 kts | 321° |
| 2026-05-01 12:33 | 43.30370 | -2.90669 | 125 ft | 7 kts | 341° |
| 2026-05-01 12:33 | 43.30410 | -2.90643 | 126 ft | 5 kts | 27° |
| 2026-05-01 12:33 | 43.30421 | -2.90636 | 126 ft | 1 kts | 26° |
| 2026-05-01 12:33 | 43.30424 | -2.90634 | 123 ft | 1 kts | 26° |
| 2026-05-01 12:34 | 43.30427 | -2.90632 | 124 ft | 0 kts | 26° |